CheckWX is a tool to help pilots better visualize weather data.  It is not intended as a substitute for an official pre-flight weather briefing.

17:13:59 UTC

EVLA TAF
Liepāja International Airport
Liepāja, Latvia
TAF EVLA 181405Z 1815/1915 27005KT CAVOK BECMG 1820/1822 18005KT TEMPO 1822/1903 0700 FG

Jun-18@
15:00 UTC

Jun-18 @ 15:00 UTC

Jun-18@
20:00 UTC

Jun-18 @ 20:00 UTC

TAF EVLA 181405Z 1815/1915 27005KT CAVOK
Wind
  • 270° at 5 KTS
Conditions
No significant weather
Cloud Levels
  • No significant clouds

Jun-18@
20:00 UTC

Jun-18 @ 20:00 UTC

Jun-19@
15:00 UTC

Jun-19 @ 15:00 UTC

BECMG 1820/1822 18005KT

Becoming

Becoming Conditions expected by Tue, Jun 18, 2019 @ 22:00 UTC

Wind
  • 180° at 5 KTS
Conditions
No significant weather
Cloud Levels
  • No significant clouds

Jun-18@
22:00 UTC

Jun-18 @ 22:00 UTC

Jun-19@
03:00 UTC

Jun-19 @ 03:00 UTC

TEMPO 1822/1903 0700 FG

Temporary

Temporary Changes expected for less than half the time period

Conditions
Fog